createdAt,value
2018-02-24T00:00:36.892Z,1022.48
2018-02-24T00:01:36.817Z,1022.45
2018-02-24T00:02:36.729Z,1022.44
2018-02-24T00:03:36.634Z,1022.45
2018-02-24T00:04:36.565Z,1022.49
2018-02-24T00:05:36.469Z,1022.44
2018-02-24T00:06:36.373Z,1022.43
2018-02-24T00:07:36.289Z,1022.48
2018-02-24T00:08:36.218Z,1022.48
2018-02-24T00:09:36.117Z,1022.42
2018-02-24T00:10:36.028Z,1022.50
2018-02-24T00:11:35.937Z,1022.54
2018-02-24T00:12:35.866Z,1022.50
2018-02-24T00:13:35.768Z,1022.48
2018-02-24T00:14:35.743Z,1022.48
2018-02-24T00:15:35.590Z,1022.48
2018-02-24T00:16:35.511Z,1022.49
2018-02-24T00:17:35.419Z,1022.44
2018-02-24T00:18:35.347Z,1022.44
2018-02-24T00:19:35.251Z,1022.44
2018-02-24T00:20:35.168Z,1022.47
2018-02-24T00:21:35.089Z,1022.45
2018-02-24T00:22:34.988Z,1022.42
2018-02-24T00:23:34.914Z,1022.47
2018-02-24T00:24:34.815Z,1022.47
2018-02-24T00:25:34.741Z,1022.51
2018-02-24T00:26:34.637Z,1022.47
2018-02-24T00:27:34.567Z,1022.51
2018-02-24T00:28:34.493Z,1022.51
2018-02-24T00:29:34.379Z,1022.45
2018-02-24T00:30:34.292Z,1022.45
2018-02-24T00:31:34.221Z,1022.46
2018-02-24T00:32:34.125Z,1022.45
2018-02-24T00:33:34.043Z,1022.46
2018-02-24T00:34:33.946Z,1022.42
2018-02-24T00:35:33.865Z,1022.43
2018-02-24T00:36:33.769Z,1022.44
2018-02-24T00:37:33.691Z,1022.44
2018-02-24T00:38:33.600Z,1022.41
2018-02-24T00:39:33.515Z,1022.42
2018-02-24T00:40:33.422Z,1022.46
2018-02-24T00:41:33.345Z,1022.43
2018-02-24T00:42:33.259Z,1022.41
2018-02-24T00:43:33.176Z,1022.47
2018-02-24T00:44:33.089Z,1022.44
2018-02-24T00:45:32.989Z,1022.49
2018-02-24T00:46:32.906Z,1022.43
2018-02-24T00:47:32.816Z,1022.46
2018-02-24T00:48:32.735Z,1022.47
2018-02-24T00:49:32.645Z,1022.44
2018-02-24T00:50:32.560Z,1022.44
2018-02-24T00:51:32.475Z,1022.40
2018-02-24T00:52:32.389Z,1022.40
2018-02-24T00:53:32.296Z,1022.35
2018-02-24T00:54:32.216Z,1022.36
2018-02-24T00:55:32.121Z,1022.39
2018-02-24T00:56:32.044Z,1022.40
2018-02-24T00:57:31.945Z,1022.35
2018-02-24T00:58:31.867Z,1022.36
2018-02-24T00:59:31.772Z,1022.36
2018-02-24T01:00:31.692Z,1022.34
2018-02-24T01:01:31.594Z,1022.32
2018-02-24T01:02:31.524Z,1022.34
2018-02-24T01:03:31.418Z,1022.32
2018-02-24T01:04:31.345Z,1022.32
2018-02-24T01:05:31.249Z,1022.34
2018-02-24T01:06:31.167Z,1022.29
2018-02-24T01:07:31.090Z,1022.30
2018-02-24T01:08:30.993Z,1022.24
2018-02-24T01:09:30.920Z,1022.25
2018-02-24T01:10:30.823Z,1022.26
2018-02-24T01:11:30.747Z,1022.24
2018-02-24T01:12:30.648Z,1022.22
2018-02-24T01:13:30.561Z,1022.21
2018-02-24T01:14:30.470Z,1022.23
2018-02-24T01:15:30.394Z,1022.22
2018-02-24T01:16:30.299Z,1022.21
2018-02-24T01:17:30.206Z,1022.21
2018-02-24T01:18:30.129Z,1022.15
2018-02-24T01:19:30.035Z,1022.17
2018-02-24T01:20:29.951Z,1022.16
2018-02-24T01:21:29.863Z,1022.16
2018-02-24T01:22:29.785Z,1022.13
2018-02-24T01:23:29.687Z,1022.17
2018-02-24T01:24:29.599Z,1022.18
2018-02-24T01:25:29.507Z,1022.18
2018-02-24T01:26:29.423Z,1022.19
2018-02-24T01:27:29.339Z,1022.20
2018-02-24T01:28:29.256Z,1022.15
2018-02-24T01:29:29.163Z,1022.15
2018-02-24T01:30:29.077Z,1022.18
2018-02-24T01:31:28.996Z,1022.13
2018-02-24T01:32:28.898Z,1022.14
2018-02-24T01:33:28.819Z,1022.12
2018-02-24T01:34:28.731Z,1022.14
2018-02-24T01:35:28.648Z,1022.15
2018-02-24T01:36:28.553Z,1022.12
2018-02-24T01:37:28.480Z,1022.12
2018-02-24T01:38:28.374Z,1022.11
2018-02-24T01:39:28.299Z,1022.10
2018-02-24T01:40:28.203Z,1022.12
2018-02-24T01:41:28.124Z,1022.11
2018-02-24T01:42:28.044Z,1022.14
2018-02-24T01:43:27.944Z,1022.16
2018-02-24T01:44:27.880Z,1022.15
2018-02-24T01:45:27.775Z,1022.18
2018-02-24T01:46:27.691Z,1022.17
2018-02-24T01:47:27.608Z,1022.18
2018-02-24T01:48:27.511Z,1022.19
2018-02-24T01:49:27.424Z,1022.16
2018-02-24T01:50:27.348Z,1022.19
2018-02-24T01:51:27.255Z,1022.17
2018-02-24T01:52:27.171Z,1022.20
2018-02-24T01:53:27.077Z,1022.14
2018-02-24T01:54:26.992Z,1022.16
2018-02-24T01:55:26.908Z,1022.19
2018-02-24T01:56:26.826Z,1022.18
2018-02-24T01:57:26.724Z,1022.15
2018-02-24T01:58:26.653Z,1022.12
2018-02-24T01:59:26.550Z,1022.12
2018-02-24T02:00:26.479Z,1022.13
2018-02-24T02:01:26.381Z,1022.16
2018-02-24T02:02:26.289Z,1022.15
2018-02-24T02:03:26.201Z,1022.18
2018-02-24T02:04:26.122Z,1022.18
2018-02-24T02:05:26.029Z,1022.15
2018-02-24T02:06:25.940Z,1022.13
2018-02-24T02:07:25.850Z,1022.10
2018-02-24T02:08:25.779Z,1022.13
2018-02-24T02:09:25.681Z,1022.14
2018-02-24T02:10:25.589Z,1022.19
2018-02-24T02:11:25.505Z,1022.14
2018-02-24T02:12:25.432Z,1022.16
2018-02-24T02:13:25.328Z,1022.17
2018-02-24T02:14:25.254Z,1022.20
2018-02-24T02:15:25.163Z,1022.19
2018-02-24T02:16:25.077Z,1022.22
2018-02-24T02:17:24.992Z,1022.19
2018-02-24T02:18:24.900Z,1022.19
2018-02-24T02:19:24.827Z,1022.16
2018-02-24T02:20:24.726Z,1022.15
2018-02-24T02:21:24.640Z,1022.16
2018-02-24T02:22:24.556Z,1022.17
2018-02-24T02:23:24.464Z,1022.16
2018-02-24T02:24:24.390Z,1022.13
2018-02-24T02:25:24.293Z,1022.13
2018-02-24T02:26:24.201Z,1022.08
2018-02-24T02:27:24.137Z,1022.07
2018-02-24T02:28:24.028Z,1022.09
2018-02-24T02:29:23.959Z,1022.08
2018-02-24T02:30:23.873Z,1022.08
2018-02-24T02:31:23.790Z,1022.11
2018-02-24T02:32:23.697Z,1022.18
2018-02-24T02:33:23.609Z,1022.16
2018-02-24T02:34:23.524Z,1022.17
2018-02-24T02:35:23.425Z,1022.20
2018-02-24T02:36:23.364Z,1022.23
2018-02-24T02:37:23.256Z,1022.24
2018-02-24T02:38:23.184Z,1022.20
2018-02-24T02:39:23.084Z,1022.19
2018-02-24T02:40:23.005Z,1022.22
2018-02-24T02:41:22.912Z,1022.20
2018-02-24T02:42:22.832Z,1022.19
2018-02-24T02:43:22.760Z,1022.24
2018-02-24T02:44:22.666Z,1022.28
2018-02-24T02:45:22.582Z,1022.29
2018-02-24T02:46:22.485Z,1022.22
2018-02-24T02:47:22.396Z,1022.23
2018-02-24T02:48:22.307Z,1022.29
2018-02-24T02:49:22.228Z,1022.36
2018-02-24T02:50:22.141Z,1022.47
2018-02-24T02:51:22.047Z,1022.45
2018-02-24T02:52:21.961Z,1022.37
2018-02-24T02:53:21.891Z,1022.33
2018-02-24T02:54:21.794Z,1022.36
2018-02-24T02:55:21.708Z,1022.39
2018-02-24T02:56:21.628Z,1022.42
2018-02-24T02:57:21.528Z,1022.40
2018-02-24T02:58:21.454Z,1022.42
2018-02-24T02:59:21.356Z,1022.41
2018-02-24T03:00:21.278Z,1022.41
2018-02-24T03:01:21.187Z,1022.40
2018-02-24T03:02:21.106Z,1022.45
2018-02-24T03:03:21.020Z,1022.42
2018-02-24T03:04:20.938Z,1022.40
2018-02-24T03:05:20.861Z,1022.43
2018-02-24T03:06:20.767Z,1022.46
2018-02-24T03:07:20.678Z,1022.42
2018-02-24T03:08:20.590Z,1022.42
2018-02-24T03:09:20.506Z,1022.47
2018-02-24T03:10:20.411Z,1022.47
2018-02-24T03:11:20.337Z,1022.46
2018-02-24T03:12:20.232Z,1022.41
2018-02-24T03:13:20.144Z,1022.40
2018-02-24T03:14:20.074Z,1022.41
2018-02-24T03:15:19.980Z,1022.35
2018-02-24T03:16:19.898Z,1022.38
2018-02-24T03:17:19.818Z,1022.43
2018-02-24T03:18:19.726Z,1022.48
2018-02-24T03:19:19.644Z,1022.47
2018-02-24T03:20:19.546Z,1022.46
2018-02-24T03:21:19.459Z,1022.49
2018-02-24T03:22:19.386Z,1022.44
2018-02-24T03:23:19.289Z,1022.47
2018-02-24T03:24:19.213Z,1022.46
2018-02-24T03:25:19.130Z,1022.44
2018-02-24T03:26:19.033Z,1022.42
2018-02-24T03:27:18.950Z,1022.39
2018-02-24T03:28:18.888Z,1022.40
2018-02-24T03:29:18.769Z,1022.40
2018-02-24T03:30:18.687Z,1022.44
2018-02-24T03:31:18.610Z,1022.45
2018-02-24T03:32:18.513Z,1022.36
2018-02-24T03:33:18.430Z,1022.35
2018-02-24T03:34:18.355Z,1022.35
2018-02-24T03:35:18.271Z,1022.35
2018-02-24T03:36:18.177Z,1022.37
2018-02-24T03:37:18.087Z,1022.35
2018-02-24T03:38:18.000Z,1022.39
2018-02-24T03:39:17.914Z,1022.38
2018-02-24T03:40:17.828Z,1022.39
2018-02-24T03:41:17.739Z,1022.41
2018-02-24T03:42:17.668Z,1022.39
2018-02-24T03:43:17.584Z,1022.41
2018-02-24T03:44:17.485Z,1022.43
2018-02-24T03:45:17.407Z,1022.42
2018-02-24T03:46:17.320Z,1022.41
2018-02-24T03:47:17.234Z,1022.42
2018-02-24T03:48:17.147Z,1022.41
2018-02-24T03:49:17.064Z,1022.41
2018-02-24T03:50:16.960Z,1022.39
2018-02-24T03:51:16.896Z,1022.38
2018-02-24T03:52:16.811Z,1022.43
2018-02-24T03:53:16.711Z,1022.41
2018-02-24T03:54:16.636Z,1022.45
2018-02-24T03:55:16.534Z,1022.44
2018-02-24T03:56:16.452Z,1022.46
2018-02-24T03:57:16.371Z,1022.49
2018-02-24T03:58:16.273Z,1022.48
2018-02-24T03:59:16.215Z,1022.48
2018-02-24T04:00:16.117Z,1022.47
2018-02-24T04:01:16.027Z,1022.56
2018-02-24T04:02:15.941Z,1022.52
2018-02-24T04:03:15.857Z,1022.52
2018-02-24T04:04:15.771Z,1022.55
2018-02-24T04:05:15.689Z,1022.58
2018-02-24T04:06:15.585Z,1022.59
2018-02-24T04:07:15.504Z,1022.57
2018-02-24T04:08:15.413Z,1022.60
2018-02-24T04:09:15.337Z,1022.62
2018-02-24T04:10:15.261Z,1022.60
2018-02-24T04:11:15.163Z,1022.61
2018-02-24T04:12:15.081Z,1022.66
2018-02-24T04:13:14.993Z,1022.61
2018-02-24T04:14:14.901Z,1022.64
2018-02-24T04:15:14.822Z,1022.69
2018-02-24T04:16:14.737Z,1022.61
2018-02-24T04:17:14.650Z,1022.68
2018-02-24T04:18:14.566Z,1022.70
2018-02-24T04:19:14.477Z,1022.69
2018-02-24T04:20:14.398Z,1022.70
2018-02-24T04:21:14.307Z,1022.68
2018-02-24T04:22:14.219Z,1022.71
2018-02-24T04:23:14.150Z,1022.70
2018-02-24T04:24:14.057Z,1022.73
2018-02-24T04:25:13.964Z,1022.74
2018-02-24T04:26:13.887Z,1022.74
2018-02-24T04:27:13.794Z,1022.75
2018-02-24T04:28:13.706Z,1022.71
2018-02-24T04:29:13.625Z,1022.71
2018-02-24T04:30:13.547Z,1022.74
2018-02-24T04:31:13.469Z,1022.70
2018-02-24T04:32:13.365Z,1022.75
2018-02-24T04:33:13.295Z,1022.73
2018-02-24T04:34:13.198Z,1022.77
2018-02-24T04:35:13.101Z,1022.76
2018-02-24T04:36:13.018Z,1022.73
2018-02-24T04:37:12.938Z,1022.76
2018-02-24T04:38:12.853Z,1022.72
2018-02-24T04:39:12.763Z,1022.73
2018-02-24T04:40:12.701Z,1022.74
2018-02-24T04:41:12.602Z,1022.78
2018-02-24T04:42:12.509Z,1022.76
2018-02-24T04:43:12.425Z,1022.75
2018-02-24T04:44:12.337Z,1022.76
2018-02-24T04:45:12.254Z,1022.75
2018-02-24T04:46:12.177Z,1022.76
2018-02-24T04:47:12.089Z,1022.75
2018-02-24T04:48:11.995Z,1022.74
2018-02-24T04:49:11.912Z,1022.74
2018-02-24T04:50:11.815Z,1022.78
2018-02-24T04:51:11.745Z,1022.74
2018-02-24T04:52:11.642Z,1022.70
2018-02-24T04:53:11.561Z,1022.72
2018-02-24T04:54:11.473Z,1022.79
2018-02-24T04:55:11.392Z,1022.78
2018-02-24T04:56:11.316Z,1022.80
2018-02-24T04:57:11.222Z,1022.86
2018-02-24T04:58:11.151Z,1022.89
2018-02-24T04:59:11.046Z,1022.88
2018-02-24T05:00:10.955Z,1022.88
2018-02-24T05:01:10.876Z,1022.91
2018-02-24T05:02:10.795Z,1022.94
2018-02-24T05:03:10.722Z,1022.95
2018-02-24T05:04:10.622Z,1022.97
2018-02-24T05:05:10.537Z,1023.00
2018-02-24T05:06:10.450Z,1022.97
2018-02-24T05:07:10.359Z,1023.06
2018-02-24T05:08:10.268Z,1023.03
2018-02-24T05:09:10.180Z,1023.06
2018-02-24T05:10:10.097Z,1023.05
2018-02-24T05:11:10.024Z,1023.03
2018-02-24T05:12:09.935Z,1023.06
2018-02-24T05:13:09.853Z,1023.07
2018-02-24T05:14:09.756Z,1023.08
2018-02-24T05:15:09.674Z,1023.11
2018-02-24T05:16:09.583Z,1023.09
2018-02-24T05:17:09.502Z,1023.10
2018-02-24T05:18:09.473Z,1023.15
2018-02-24T05:19:09.349Z,1023.12
2018-02-24T05:20:09.247Z,1023.17
2018-02-24T05:21:09.167Z,1023.14
2018-02-24T05:22:09.068Z,1023.14
2018-02-24T05:23:08.995Z,1023.17
2018-02-24T05:24:08.896Z,1023.13
2018-02-24T05:25:08.827Z,1023.20
2018-02-24T05:26:08.734Z,1023.16
2018-02-24T05:27:08.648Z,1023.16
2018-02-24T05:28:08.574Z,1023.14
2018-02-24T05:29:08.477Z,1023.16
2018-02-24T05:30:08.401Z,1023.15
2018-02-24T05:31:08.300Z,1023.14
2018-02-24T05:32:08.227Z,1023.12
2018-02-24T05:33:08.119Z,1023.15
2018-02-24T05:34:08.037Z,1023.12
2018-02-24T05:35:07.955Z,1023.15
2018-02-24T05:36:07.879Z,1023.14
2018-02-24T05:37:07.789Z,1023.08
2018-02-24T05:38:07.703Z,1023.11
2018-02-24T05:39:07.620Z,1023.13
2018-02-24T05:40:07.519Z,1023.13
2018-02-24T05:41:07.442Z,1023.12
2018-02-24T05:42:07.358Z,1023.13
2018-02-24T05:43:07.272Z,1023.12
2018-02-24T05:44:07.180Z,1023.13
2018-02-24T05:45:07.110Z,1023.09
2018-02-24T05:46:07.011Z,1023.14
2018-02-24T05:47:06.926Z,1023.12
2018-02-24T05:48:06.834Z,1023.15
2018-02-24T05:49:06.752Z,1023.11
2018-02-24T05:50:06.675Z,1023.13
2018-02-24T05:51:06.574Z,1023.12
2018-02-24T05:52:06.507Z,1023.16
2018-02-24T05:53:06.428Z,1023.12
2018-02-24T05:54:06.328Z,1023.16
2018-02-24T05:55:06.247Z,1023.14
2018-02-24T05:56:06.147Z,1023.16
2018-02-24T05:57:06.079Z,1023.20
2018-02-24T05:58:05.984Z,1023.22
2018-02-24T05:59:05.888Z,1023.20
2018-02-24T06:00:05.816Z,1023.23
2018-02-24T06:01:05.729Z,1023.25
2018-02-24T06:02:05.635Z,1023.25
2018-02-24T06:03:05.559Z,1023.23
2018-02-24T06:04:05.471Z,1023.29
2018-02-24T06:05:05.375Z,1023.33
2018-02-24T06:06:05.298Z,1023.31
2018-02-24T06:07:05.200Z,1023.32
2018-02-24T06:08:05.123Z,1023.32
2018-02-24T06:09:05.037Z,1023.33
2018-02-24T06:10:04.956Z,1023.33
2018-02-24T06:11:04.868Z,1023.39
2018-02-24T06:12:04.781Z,1023.35
2018-02-24T06:13:04.689Z,1023.38
2018-02-24T06:14:04.606Z,1023.41
2018-02-24T06:15:04.514Z,1023.37
2018-02-24T06:16:04.437Z,1023.41
2018-02-24T06:17:04.359Z,1023.35
2018-02-24T06:18:04.276Z,1023.43
2018-02-24T06:19:04.179Z,1023.39
2018-02-24T06:20:04.087Z,1023.39
2018-02-24T06:21:04.008Z,1023.39
2018-02-24T06:22:03.917Z,1023.46
2018-02-24T06:23:03.827Z,1023.42
2018-02-24T06:24:03.745Z,1023.38
2018-02-24T06:25:03.662Z,1023.37
2018-02-24T06:26:03.577Z,1023.41
2018-02-24T06:27:03.493Z,1023.44
2018-02-24T06:28:03.399Z,1023.43
2018-02-24T06:29:03.313Z,1023.44
2018-02-24T06:30:03.231Z,1023.43
2018-02-24T06:31:03.153Z,1023.46
2018-02-24T06:32:03.061Z,1023.45
2018-02-24T06:33:02.979Z,1023.45
2018-02-24T06:34:02.877Z,1023.49
2018-02-24T06:35:02.812Z,1023.50
2018-02-24T06:36:02.728Z,1023.51
2018-02-24T06:37:02.631Z,1023.51
2018-02-24T06:38:02.546Z,1023.49
2018-02-24T06:39:02.464Z,1023.57
2018-02-24T06:40:02.389Z,1023.59
2018-02-24T06:41:02.292Z,1023.63
2018-02-24T06:42:02.191Z,1023.63
2018-02-24T06:43:02.116Z,1023.66
2018-02-24T06:44:02.029Z,1023.64
2018-02-24T06:45:01.947Z,1023.63
2018-02-24T06:46:01.867Z,1023.70
2018-02-24T06:47:01.772Z,1023.70
2018-02-24T06:48:01.686Z,1023.74
2018-02-24T06:49:01.610Z,1023.78
2018-02-24T06:50:01.508Z,1023.83
2018-02-24T06:51:01.436Z,1023.76
2018-02-24T06:52:01.342Z,1023.77
2018-02-24T06:53:01.260Z,1023.87
2018-02-24T06:54:01.173Z,1023.89
2018-02-24T06:55:01.084Z,1023.96
2018-02-24T06:56:01.011Z,1023.91
2018-02-24T06:57:00.905Z,1023.92
2018-02-24T06:58:00.823Z,1023.93
2018-02-24T06:59:00.729Z,1023.99
2018-02-24T07:00:00.656Z,1023.97
2018-02-24T07:01:00.572Z,1024.01
2018-02-24T07:02:00.480Z,1023.96
2018-02-24T07:03:00.407Z,1023.98
2018-02-24T07:04:00.310Z,1023.97
2018-02-24T07:05:00.217Z,1024.02
2018-02-24T07:06:00.137Z,1024.07
2018-02-24T07:07:00.055Z,1024.08
2018-02-24T07:07:59.968Z,1024.10
2018-02-24T07:08:59.889Z,1024.12
2018-02-24T07:09:59.809Z,1024.15
2018-02-24T07:10:59.710Z,1024.12
2018-02-24T07:11:59.624Z,1024.13
2018-02-24T07:12:59.573Z,1024.12
2018-02-24T07:13:59.449Z,1024.18
2018-02-24T07:14:59.377Z,1024.20
2018-02-24T07:15:59.295Z,1024.15
2018-02-24T07:16:59.215Z,1024.16
2018-02-24T07:17:59.113Z,1024.20
2018-02-24T07:18:59.032Z,1024.20
2018-02-24T07:19:58.932Z,1024.17
2018-02-24T07:20:58.849Z,1024.21
2018-02-24T07:21:58.768Z,1024.25
2018-02-24T07:22:58.680Z,1024.22
2018-02-24T07:23:58.607Z,1024.28
2018-02-24T07:24:58.510Z,1024.26
2018-02-24T07:25:58.420Z,1024.24
2018-02-24T07:26:58.339Z,1024.28
2018-02-24T07:27:58.264Z,1024.38
2018-02-24T07:28:58.166Z,1024.36
2018-02-24T07:29:58.094Z,1024.31
2018-02-24T07:30:58.013Z,1024.29
2018-02-24T07:31:57.919Z,1024.28
2018-02-24T07:32:57.824Z,1024.31
2018-02-24T07:33:57.732Z,1024.29
2018-02-24T07:34:57.662Z,1024.30
2018-02-24T07:35:57.571Z,1024.33
2018-02-24T07:36:57.482Z,1024.32
2018-02-24T07:37:57.412Z,1024.30
2018-02-24T07:38:57.309Z,1024.33
2018-02-24T07:39:57.232Z,1024.36
2018-02-24T07:40:57.164Z,1024.31
2018-02-24T07:41:57.064Z,1024.35
2018-02-24T07:42:56.975Z,1024.30
2018-02-24T07:43:56.883Z,1024.30
2018-02-24T07:44:56.808Z,1024.27
2018-02-24T07:45:56.726Z,1024.30
2018-02-24T07:46:56.650Z,1024.32
2018-02-24T07:47:56.564Z,1024.26
2018-02-24T07:48:56.472Z,1024.30
2018-02-24T07:49:56.386Z,1024.21
2018-02-24T07:50:56.319Z,1024.23
2018-02-24T07:51:56.217Z,1024.23
2018-02-24T07:52:56.147Z,1024.25
2018-02-24T07:53:56.072Z,1024.25
2018-02-24T07:54:55.961Z,1024.22
2018-02-24T07:55:55.879Z,1024.24
2018-02-24T07:56:55.791Z,1024.24
2018-02-24T07:57:55.712Z,1024.33
2018-02-24T07:58:55.633Z,1024.25
2018-02-24T07:59:55.534Z,1024.21
2018-02-24T08:00:55.458Z,1024.29
2018-02-24T08:01:55.386Z,1024.24
2018-02-24T08:02:55.291Z,1024.28
2018-02-24T08:03:55.216Z,1024.26
2018-02-24T08:04:55.117Z,1024.29
2018-02-24T08:05:55.042Z,1024.28
2018-02-24T08:06:54.966Z,1024.27
2018-02-24T08:07:54.862Z,1024.23
2018-02-24T08:08:54.783Z,1024.25
2018-02-24T08:09:54.700Z,1024.33
2018-02-24T08:10:54.616Z,1024.36
2018-02-24T08:11:54.538Z,1024.37
2018-02-24T08:12:54.447Z,1024.29
2018-02-24T08:13:54.350Z,1024.22
2018-02-24T08:14:54.281Z,1024.29
2018-02-24T08:15:54.194Z,1024.32
2018-02-24T08:16:54.119Z,1024.32
2018-02-24T08:17:54.024Z,1024.28
2018-02-24T08:18:53.925Z,1024.40
2018-02-24T08:19:53.844Z,1024.42
2018-02-24T08:20:53.772Z,1024.54
2018-02-24T08:21:53.676Z,1024.40
2018-02-24T08:22:53.597Z,1024.38
2018-02-24T08:23:53.515Z,1024.40
2018-02-24T08:24:53.422Z,1024.47
2018-02-24T08:25:53.341Z,1024.47
2018-02-24T08:26:53.306Z,1024.48
2018-02-24T08:27:53.175Z,1024.48
2018-02-24T08:28:53.086Z,1024.53
2018-02-24T08:29:52.994Z,1024.45
2018-02-24T08:30:52.915Z,1024.50
2018-02-24T08:31:52.826Z,1024.43
2018-02-24T08:32:52.801Z,1024.53
2018-02-24T08:33:52.669Z,1024.44
2018-02-24T08:34:52.583Z,1024.52
2018-02-24T08:35:52.504Z,1024.50
2018-02-24T08:36:52.419Z,1024.53
2018-02-24T08:37:52.315Z,1024.40
2018-02-24T08:38:52.237Z,1024.48
2018-02-24T08:39:52.159Z,1024.53
2018-02-24T08:40:52.066Z,1024.44
2018-02-24T08:41:51.982Z,1024.55
2018-02-24T08:42:51.888Z,1024.52
2018-02-24T08:43:51.825Z,1024.52
2018-02-24T08:44:51.741Z,1024.47
2018-02-24T08:45:51.709Z,1024.48
2018-02-24T08:46:51.558Z,1024.51
2018-02-24T08:47:51.472Z,1024.52
2018-02-24T08:48:51.396Z,1024.52
2018-02-24T08:49:51.321Z,1024.50
2018-02-24T08:50:51.214Z,1024.47
2018-02-24T08:51:51.131Z,1024.48
2018-02-24T08:52:51.067Z,1024.56
2018-02-24T08:53:50.964Z,1024.49
2018-02-24T08:54:50.883Z,1024.45
2018-02-24T08:55:50.800Z,1024.44
2018-02-24T08:56:50.715Z,1024.57
2018-02-24T08:57:50.620Z,1024.50
2018-02-24T08:58:50.551Z,1024.68
2018-02-24T08:59:50.472Z,1024.51
2018-02-24T09:00:50.372Z,1024.55
2018-02-24T09:01:50.286Z,1024.54
2018-02-24T09:02:50.209Z,1024.67
2018-02-24T09:03:50.115Z,1024.58
2018-02-24T09:04:50.035Z,1024.49
2018-02-24T09:05:49.959Z,1024.59
2018-02-24T09:06:49.882Z,1024.56
2018-02-24T09:07:49.785Z,1024.67
2018-02-24T09:08:49.698Z,1024.56
2018-02-24T09:09:49.622Z,1024.58
2018-02-24T09:10:49.547Z,1024.62
2018-02-24T09:11:49.451Z,1024.58
2018-02-24T09:12:49.357Z,1024.56
2018-02-24T09:13:49.287Z,1024.60
2018-02-24T09:14:49.199Z,1024.54
2018-02-24T09:15:49.118Z,1024.57
2018-02-24T09:16:49.041Z,1024.56
2018-02-24T09:17:48.956Z,1024.49
2018-02-24T09:18:48.863Z,1024.53
2018-02-24T09:19:48.798Z,1024.51
2018-02-24T09:20:48.701Z,1024.54
2018-02-24T09:21:48.612Z,1024.54
2018-02-24T09:22:48.532Z,1024.64
2018-02-24T09:23:48.447Z,1024.55
2018-02-24T09:24:48.366Z,1024.59
2018-02-24T09:25:48.292Z,1024.48
2018-02-24T09:26:48.198Z,1024.53
2018-02-24T09:27:48.108Z,1024.59
2018-02-24T09:28:48.031Z,1024.52
2018-02-24T09:29:47.951Z,1024.56
2018-02-24T09:30:47.884Z,1024.56
2018-02-24T09:31:47.802Z,1024.56
2018-02-24T09:32:47.705Z,1024.58
2018-02-24T09:33:47.609Z,1024.56
2018-02-24T09:34:47.537Z,1024.51
2018-02-24T09:35:47.445Z,1024.56
2018-02-24T09:36:47.359Z,1024.59
2018-02-24T09:37:47.287Z,1024.53
2018-02-24T09:38:47.252Z,1024.55
2018-02-24T09:39:47.139Z,1024.54
2018-02-24T09:40:47.051Z,1024.61
2018-02-24T09:41:46.954Z,1024.60
2018-02-24T09:42:46.881Z,1024.69
2018-02-24T09:43:46.796Z,1024.51
2018-02-24T09:44:46.702Z,1024.67
2018-02-24T09:45:46.632Z,1024.63
2018-02-24T09:46:46.534Z,1024.66
2018-02-24T09:47:46.457Z,1024.64
2018-02-24T09:48:46.376Z,1024.67
2018-02-24T09:49:46.284Z,1024.74
2018-02-24T09:50:46.216Z,1024.79
2018-02-24T09:51:46.126Z,1024.70
2018-02-24T09:52:46.038Z,1024.71
2018-02-24T09:53:45.968Z,1024.72
2018-02-24T09:54:45.872Z,1024.68
2018-02-24T09:55:45.801Z,1024.71
2018-02-24T09:56:45.715Z,1024.71
2018-02-24T09:57:45.630Z,1024.69
2018-02-24T09:58:45.596Z,1024.67
2018-02-24T09:59:45.470Z,1024.64
2018-02-24T10:00:45.398Z,1024.66
2018-02-24T10:01:45.304Z,1024.61
2018-02-24T10:02:45.237Z,1024.68
2018-02-24T10:03:45.143Z,1024.70
2018-02-24T10:04:45.051Z,1024.67
2018-02-24T10:05:44.980Z,1024.70
2018-02-24T10:06:44.903Z,1024.61
2018-02-24T10:07:44.801Z,1024.65
2018-02-24T10:08:44.744Z,1024.65
2018-02-24T10:09:44.655Z,1024.66
2018-02-24T10:10:44.562Z,1024.72
2018-02-24T10:11:44.485Z,1024.67
2018-02-24T10:12:44.402Z,1024.65
2018-02-24T10:13:44.318Z,1024.69
2018-02-24T10:14:44.228Z,1024.71
2018-02-24T10:15:44.149Z,1024.72
2018-02-24T10:16:44.062Z,1024.64
2018-02-24T10:17:43.980Z,1024.71
2018-02-24T10:18:43.901Z,1024.66
2018-02-24T10:19:43.818Z,1024.67
2018-02-24T10:20:43.731Z,1024.65
2018-02-24T10:21:43.652Z,1024.59
2018-02-24T10:22:43.570Z,1024.71
2018-02-24T10:23:43.487Z,1024.64
2018-02-24T10:24:43.399Z,1024.65
2018-02-24T10:25:43.320Z,1024.65
2018-02-24T10:26:43.259Z,1024.65
2018-02-24T10:27:43.162Z,1024.67
2018-02-24T10:28:43.090Z,1024.67
2018-02-24T10:29:42.992Z,1024.77
2018-02-24T10:30:42.908Z,1024.70
2018-02-24T10:31:42.828Z,1024.64
2018-02-24T10:32:42.759Z,1024.72
2018-02-24T10:33:42.659Z,1024.76
2018-02-24T10:34:42.583Z,1024.73
2018-02-24T10:35:42.514Z,1024.70
2018-02-24T10:36:42.423Z,1024.78
2018-02-24T10:37:42.327Z,1024.77
2018-02-24T10:38:42.258Z,1024.75
2018-02-24T10:39:42.168Z,1024.76
2018-02-24T10:40:42.088Z,1024.79
2018-02-24T10:41:42.013Z,1024.81
2018-02-24T10:42:41.931Z,1024.81
2018-02-24T10:43:41.831Z,1024.86
2018-02-24T10:44:41.756Z,1024.78
2018-02-24T10:45:41.667Z,1024.74
2018-02-24T10:46:41.590Z,1024.71
2018-02-24T10:47:41.503Z,1024.76
2018-02-24T10:48:41.423Z,1024.70
2018-02-24T10:49:41.353Z,1024.66
2018-02-24T10:50:41.259Z,1024.67
2018-02-24T10:51:41.173Z,1024.72
2018-02-24T10:52:41.103Z,1024.78
2018-02-24T10:53:41.005Z,1024.69
2018-02-24T10:54:40.928Z,1024.53
2018-02-24T10:55:40.843Z,1024.66
2018-02-24T10:56:40.760Z,1024.70
2018-02-24T10:57:40.671Z,1024.70
2018-02-24T10:58:40.601Z,1024.70
2018-02-24T10:59:40.511Z,1024.73
2018-02-24T11:00:40.429Z,1024.65
2018-02-24T11:01:40.347Z,1024.65
2018-02-24T11:02:40.263Z,1024.59
2018-02-24T11:03:40.178Z,1024.60
2018-02-24T11:04:40.088Z,1024.72
2018-02-24T11:05:40.007Z,1024.72
2018-02-24T11:06:39.930Z,1024.56
2018-02-24T11:07:39.839Z,1024.69
2018-02-24T11:08:39.762Z,1024.66
2018-02-24T11:09:39.680Z,1024.63
2018-02-24T11:10:39.582Z,1024.68
2018-02-24T11:11:39.517Z,1024.71
2018-02-24T11:12:39.426Z,1024.69
2018-02-24T11:13:39.332Z,1024.69
2018-02-24T11:14:39.266Z,1024.59
2018-02-24T11:15:39.181Z,1024.85
2018-02-24T11:16:39.087Z,1024.81
2018-02-24T11:17:39.010Z,1024.77
2018-02-24T11:18:38.919Z,1024.80
2018-02-24T11:19:38.846Z,1024.85
2018-02-24T11:20:38.760Z,1024.86
2018-02-24T11:21:38.670Z,1024.74
2018-02-24T11:22:38.587Z,1024.73
2018-02-24T11:23:38.509Z,1024.76
2018-02-24T11:24:38.422Z,1024.81
2018-02-24T11:25:38.345Z,1024.74
2018-02-24T11:26:38.256Z,1024.62
2018-02-24T11:27:38.183Z,1024.58
2018-02-24T11:28:38.117Z,1024.62
2018-02-24T11:29:38.016Z,1024.58
2018-02-24T11:30:37.945Z,1024.54
2018-02-24T11:31:37.853Z,1024.48
2018-02-24T11:32:37.779Z,1024.47
2018-02-24T11:33:37.693Z,1024.52
2018-02-24T11:34:37.614Z,1024.52
2018-02-24T11:35:37.522Z,1024.68
2018-02-24T11:36:37.438Z,1024.66
2018-02-24T11:37:37.355Z,1024.71
2018-02-24T11:38:37.277Z,1024.76
2018-02-24T11:39:37.184Z,1024.83
2018-02-24T11:40:37.108Z,1024.81
2018-02-24T11:41:37.026Z,1024.85
2018-02-24T11:42:36.941Z,1024.92
2018-02-24T11:43:36.894Z,1024.79
2018-02-24T11:44:36.790Z,1024.50
2018-02-24T11:45:36.718Z,1024.74
2018-02-24T11:46:36.662Z,1024.86
2018-02-24T11:47:36.533Z,1024.87
2018-02-24T11:48:36.449Z,1024.84
2018-02-24T11:49:36.394Z,1024.93
2018-02-24T11:50:36.293Z,1024.83
2018-02-24T11:51:36.218Z,1024.95
2018-02-24T11:52:36.128Z,1024.85
2018-02-24T11:53:36.054Z,1024.90
2018-02-24T11:54:35.967Z,1024.86
2018-02-24T11:55:35.887Z,1024.88
2018-02-24T11:56:35.817Z,1024.84
2018-02-24T11:57:35.737Z,1024.87
2018-02-24T11:58:35.635Z,1024.84
2018-02-24T11:59:35.566Z,1024.84
2018-02-24T12:00:35.489Z,1024.81
2018-02-24T12:01:35.400Z,1024.80
2018-02-24T12:02:35.326Z,1024.88
2018-02-24T12:03:35.246Z,1024.79
2018-02-24T12:04:35.156Z,1024.80